Time;durP1;ratioP1;P1;durP2;ratioP2;P2;SDS_P1;SDS_P2;PMS_P1;PMS_P2;Temp;Humidity;BMP_temperature;BMP_pressure;BME280_temperature;BME280_humidity;BME280_pressure;Samples;Min_cycle;Max_cycle;Signal;HPM_P1;HPM_P2
2023/05/07 06:19:52;;;;;;;6.20;5.60;;;;;;;;;;6038568;23;21232;31
2023/05/07 06:22:18;;;;;;;6.38;5.78;;;;;;;;;;4897379;29;20104;-74
2023/05/07 06:24:43;;;;;;;5.78;5.28;;;;;;;;;;4900972;29;20127;-74
2023/05/07 06:27:09;;;;;;;5.70;5.20;;;;;;;;;;4900081;29;20120;-74
2023/05/07 06:29:34;;;;;;;5.90;5.30;;;;;;;;;;4900922;29;20053;-73
2023/05/07 06:32:07;;;;;;;6.18;5.47;;;;;;;;;;4900588;29;20092;-73
2023/05/07 06:34:33;;;;;;;5.55;5.10;;;;;;;;;;4900796;29;20460;-73
2023/05/07 06:36:58;;;;;;;6.15;5.45;;;;;;;;;;4900615;29;20036;-75
2023/05/07 06:39:24;;;;;;;5.80;5.30;;;;;;;;;;4900680;29;20176;-73
2023/05/07 06:41:49;;;;;;;7.05;5.68;;;;;;;;;;4900329;29;20494;-74
2023/05/07 06:44:15;;;;;;;5.95;5.45;;;;;;;;;;4900627;29;20042;-73
2023/05/07 06:46:41;;;;;;;5.43;4.95;;;;;;;;;;4900663;29;20107;-73
2023/05/07 06:49:06;;;;;;;6.75;4.80;;;;;;;;;;4900261;29;20044;-74
2023/05/07 06:51:32;;;;;;;5.60;5.10;;;;;;;;;;4900172;29;20403;-73
2023/05/07 06:53:58;;;;;;;5.45;5.05;;;;;;;;;;4900471;29;20494;-74
2023/05/07 06:56:23;;;;;;;5.57;5.10;;;;;;;;;;4900636;29;20033;-74
2023/05/07 06:58:48;;;;;;;5.43;4.93;;;;;;;;;;4900078;29;20029;-74
2023/05/07 07:01:15;;;;;;;6.38;5.30;;;;;;;;;;4900334;29;20021;-73
2023/05/07 07:03:40;;;;;;;6.55;5.03;;;;;;;;;;4899651;29;20029;-73
2023/05/07 07:06:06;;;;;;;5.45;5.05;;;;;;;;;;4899729;29;20039;-73
2023/05/07 07:08:31;;;;;;;7.63;5.18;;;;;;;;;;4913933;29;20467;-73
2023/05/07 07:10:57;;;;;;;5.18;4.78;;;;;;;;;;4899509;29;20021;-74
2023/05/07 07:13:22;;;;;;;5.10;4.68;;;;;;;;;;4899601;29;20029;-74
2023/05/07 07:15:48;;;;;;;4.43;4.03;;;;;;;;;;4899067;29;20385;-73
2023/05/07 07:18:13;;;;;;;5.05;4.65;;;;;;;;;;4899509;29;20035;-73
2023/05/07 07:20:39;;;;;;;5.30;4.80;;;;;;;;;;4905431;29;20132;-73
2023/05/07 07:23:04;;;;;;;5.85;5.35;;;;;;;;;;4918201;29;20036;-73
2023/05/07 07:25:29;;;;;;;9.52;8.52;;;;;;;;;;4918573;29;20032;-74
2023/05/07 07:27:55;;;;;;;8.60;7.70;;;;;;;;;;4918180;29;20393;-74
2023/05/07 07:30:20;;;;;;;5.32;4.82;;;;;;;;;;4918039;29;20091;-74
2023/05/07 07:32:46;;;;;;;5.60;5.05;;;;;;;;;;4918119;29;20028;-73
2023/05/07 07:35:11;;;;;;;5.32;4.90;;;;;;;;;;4918226;29;20041;-74
2023/05/07 07:37:36;;;;;;;4.97;4.53;;;;;;;;;;4918102;29;20483;-74
2023/05/07 07:40:03;;;;;;;5.18;4.78;;;;;;;;;;4918528;29;20118;-73
2023/05/07 07:42:29;;;;;;;5.25;4.85;;;;;;;;;;4918380;29;20407;-74
2023/05/07 07:44:54;;;;;;;4.65;4.25;;;;;;;;;;4918179;29;20035;-74
2023/05/07 07:47:20;;;;;;;5.72;5.07;;;;;;;;;;4918248;29;20028;-75
2023/05/07 07:49:45;;;;;;;6.50;5.90;;;;;;;;;;4918090;29;20087;-74
2023/05/07 07:52:11;;;;;;;5.53;5.13;;;;;;;;;;4917797;29;20031;-76
2023/05/07 07:54:36;;;;;;;5.30;4.82;;;;;;;;;;4918064;29;20035;-73
2023/05/07 07:57:01;;;;;;;5.68;5.18;;;;;;;;;;4918081;29;20480;-72
2023/05/07 07:59:27;;;;;;;5.57;5.07;;;;;;;;;;4918024;29;20034;-75
2023/05/07 08:01:55;;;;;;;5.55;5.07;;;;;;;;;;4917910;29;20065;-75
2023/05/07 08:04:21;;;;;;;5.25;4.85;;;;;;;;;;4917750;29;20024;-75
2023/05/07 08:06:46;;;;;;;5.00;4.60;;;;;;;;;;4917937;29;20038;-75
2023/05/07 08:09:12;;;;;;;5.60;5.10;;;;;;;;;;4917844;29;20351;-75
2023/05/07 08:11:38;;;;;;;7.40;5.55;;;;;;;;;;4917635;29;20024;-73
2023/05/07 08:14:04;;;;;;;5.50;5.00;;;;;;;;;;4917786;29;20038;-73
2023/05/07 08:16:29;;;;;;;6.07;5.35;;;;;;;;;;4917770;29;20534;-73
2023/05/07 08:18:55;;;;;;;5.07;4.68;;;;;;;;;;4917739;29;20020;-73
2023/05/07 08:21:20;;;;;;;5.13;4.72;;;;;;;;;;4917319;29;20047;-73
2023/05/07 08:23:46;;;;;;;5.15;4.65;;;;;;;;;;4917434;29;20045;-73
2023/05/07 08:26:11;;;;;;;5.13;4.72;;;;;;;;;;4917168;29;20119;-73
2023/05/07 08:28:36;;;;;;;6.63;5.25;;;;;;;;;;4917430;29;20028;-73
2023/05/07 08:31:02;;;;;;;5.60;5.03;;;;;;;;;;4917295;29;20123;-73
2023/05/07 08:33:27;;;;;;;7.03;6.07;;;;;;;;;;4917592;29;20046;-73
2023/05/07 08:35:53;;;;;;;6.07;5.47;;;;;;;;;;4917473;29;20110;-73
2023/05/07 08:38:18;;;;;;;6.70;6.10;;;;;;;;;;4917559;29;20479;-73
2023/05/07 08:40:44;;;;;;;6.55;5.95;;;;;;;;;;4917233;29;20453;-73
2023/05/07 08:43:12;;;;;;;5.93;5.32;;;;;;;;;;4917304;29;20039;-73
2023/05/07 08:45:40;;;;;;;5.30;4.90;;;;;;;;;;4917639;29;20032;-73
2023/05/07 08:48:12;;;;;;;6.10;5.50;;;;;;;;;;4917273;29;20056;-73
2023/05/07 08:50:38;;;;;;;5.18;4.68;;;;;;;;;;4917044;29;20040;-73
2023/05/07 08:53:04;;;;;;;4.70;4.30;;;;;;;;;;4916415;29;20028;-73
2023/05/07 08:55:30;;;;;;;5.10;4.70;;;;;;;;;;4917315;29;20036;-73
2023/05/07 08:57:56;;;;;;;4.50;4.20;;;;;;;;;;4917213;29;20047;-73
2023/05/07 09:00:21;;;;;;;4.25;3.95;;;;;;;;;;4917098;29;20028;-73
2023/05/07 09:02:47;;;;;;;4.43;4.03;;;;;;;;;;4917369;29;20028;-73
2023/05/07 09:05:12;;;;;;;4.25;3.90;;;;;;;;;;4917101;29;20032;-73
2023/05/07 09:07:38;;;;;;;4.65;4.25;;;;;;;;;;4917339;29;20459;-73
2023/05/07 09:10:04;;;;;;;4.85;4.32;;;;;;;;;;4917059;29;20024;-73
2023/05/07 09:12:30;;;;;;;4.53;4.13;;;;;;;;;;4917111;29;20035;-73
2023/05/07 09:14:56;;;;;;;5.00;4.50;;;;;;;;;;4916974;29;20468;-73
2023/05/07 09:17:21;;;;;;;4.85;4.35;;;;;;;;;;4917071;29;20038;-73
2023/05/07 09:19:47;;;;;;;4.57;4.20;;;;;;;;;;4916777;29;20024;-73
2023/05/07 09:22:13;;;;;;;4.65;4.35;;;;;;;;;;4916628;29;20051;-73
2023/05/07 09:24:39;;;;;;;4.55;4.15;;;;;;;;;;4916895;29;20399;-74
2023/05/07 09:27:05;;;;;;;4.75;4.35;;;;;;;;;;4917057;29;20585;-73
2023/05/07 09:29:37;;;;;;;4.20;3.90;;;;;;;;;;4917084;29;20123;-74
2023/05/07 09:32:06;;;;;;;4.57;4.13;;;;;;;;;;4916994;29;20050;-74
2023/05/07 09:34:32;;;;;;;;;;;;;;;;;;4917306;29;20383;-74
2023/05/07 09:37:04;;;;;;;5.25;4.85;;;;;;;;;;4916952;29;19937;-76
2023/05/07 09:39:47;;;;;;;4.70;4.28;;;;;;;;;;4920566;29;20464;-76
2023/05/07 09:42:14;;;;;;;5.85;4.80;;;;;;;;;;4920319;29;20123;-75
2023/05/07 09:44:40;;;;;;;4.65;4.25;;;;;;;;;;4920395;29;20020;-76
2023/05/07 09:47:07;;;;;;;5.03;4.47;;;;;;;;;;4920301;29;20164;-75
2023/05/07 09:49:37;;;;;;;4.93;4.53;;;;;;;;;;4920332;29;20036;-75
2023/05/07 09:52:06;;;;;;;4.75;4.35;;;;;;;;;;4920115;29;20032;-75
2023/05/07 09:54:33;;;;;;;4.80;4.40;;;;;;;;;;4936051;29;20031;-75
2023/05/07 09:57:02;;;;;;;5.68;5.10;;;;;;;;;;4920327;29;20123;-73
2023/05/07 09:59:27;;;;;;;6.82;4.72;;;;;;;;;;4919808;29;20020;-75
2023/05/07 10:01:56;;;;;;;5.55;5.03;;;;;;;;;;4920302;29;20042;-74
2023/05/07 10:04:22;;;;;;;4.60;4.30;;;;;;;;;;4920143;29;20024;-74
2023/05/07 10:06:48;;;;;;;5.47;4.18;;;;;;;;;;4920049;29;20326;-75
2023/05/07 10:09:15;;;;;;;4.80;4.35;;;;;;;;;;4920014;29;20032;-74
2023/05/07 10:11:41;;;;;;;4.53;4.20;;;;;;;;;;4919612;29;20467;-74
2023/05/07 10:14:07;;;;;;;5.28;4.78;;;;;;;;;;4919897;29;20043;-75
2023/05/07 10:16:36;;;;;;;5.00;4.60;;;;;;;;;;4919695;29;20141;-73
2023/05/07 10:19:03;;;;;;;5.10;4.38;;;;;;;;;;4919991;29;20024;-74
2023/05/07 10:21:30;;;;;;;4.75;4.43;;;;;;;;;;4919433;29;20483;-76
2023/05/07 10:24:02;;;;;;;4.78;3.92;;;;;;;;;;4919490;29;20373;-74
2023/05/07 10:26:29;;;;;;;5.45;4.65;;;;;;;;;;4919517;29;20048;-76
2023/05/07 10:29:03;;;;;;;4.80;4.32;;;;;;;;;;4919909;29;20020;-76
2023/05/07 10:31:56;;;;;;;4.25;3.95;;;;;;;;;;4919573;29;20361;-77
2023/05/07 10:34:26;;;;;;;4.65;4.20;;;;;;;;;;4918213;29;20066;-76
2023/05/07 10:36:52;;;;;;;4.20;3.80;;;;;;;;;;4933853;29;20024;-77
2023/05/07 10:39:19;;;;;;;4.47;4.07;;;;;;;;;;4902455;29;20024;-76
2023/05/07 10:41:44;;;;;;;4.20;3.80;;;;;;;;;;4919427;29;20097;-77
2023/05/07 10:44:11;;;;;;;4.20;3.90;;;;;;;;;;4919298;29;20044;-76
2023/05/07 10:46:36;;;;;;;4.40;4.00;;;;;;;;;;4919400;29;20039;-76
2023/05/07 10:49:02;;;;;;;4.53;4.15;;;;;;;;;;4918988;29;20036;-76
2023/05/07 10:51:32;;;;;;;4.75;4.30;;;;;;;;;;4919016;29;20091;-77
2023/05/07 10:54:12;;;;;;;4.13;3.80;;;;;;;;;;4919193;29;20080;-76
2023/05/07 10:56:47;;;;;;;4.43;4.13;;;;;;;;;;4919193;29;20028;-75
2023/05/07 10:59:23;;;;;;;4.35;4.00;;;;;;;;;;4919333;29;20020;-74
2023/05/07 11:02:06;;;;;;;4.63;4.28;;;;;;;;;;4918776;29;20020;-76
2023/05/07 11:04:34;;;;;;;4.82;4.30;;;;;;;;;;4918943;29;20082;-75
2023/05/07 11:07:08;;;;;;;5.22;4.72;;;;;;;;;;4919026;29;20032;-76
2023/05/07 11:09:52;;;;;;;5.03;4.63;;;;;;;;;;4918655;29;20095;-75
2023/05/07 11:12:37;;;;;;;5.25;4.28;;;;;;;;;;4918721;29;20048;-75
2023/05/07 11:15:15;;;;;;;4.60;4.20;;;;;;;;;;4918839;29;20055;-75
2023/05/07 11:17:55;;;;;;;5.05;4.63;;;;;;;;;;4918604;29;20536;-75
2023/05/07 11:20:20;;;;;;;4.75;4.35;;;;;;;;;;4918431;29;20044;-74
2023/05/07 11:22:46;;;;;;;4.50;4.10;;;;;;;;;;4918347;29;20028;-79
2023/05/07 11:25:21;;;;;;;5.53;4.95;;;;;;;;;;4918809;29;20047;-75
2023/05/07 11:27:47;;;;;;;4.85;4.30;;;;;;;;;;4918892;29;20559;-74
2023/05/07 11:30:18;;;;;;;4.43;4.10;;;;;;;;;;4918288;29;20073;-75
2023/05/07 11:32:48;;;;;;;4.90;4.40;;;;;;;;;;4917154;29;20112;-75
2023/05/07 11:35:15;;;;;;;4.80;4.40;;;;;;;;;;4918137;29;20036;-75
2023/05/07 11:37:41;;;;;;;3.83;3.45;;;;;;;;;;4918452;29;20395;-75
2023/05/07 11:40:10;;;;;;;5.07;4.30;;;;;;;;;;4918002;29;20032;-75
2023/05/07 11:42:38;;;;;;;5.20;4.80;;;;;;;;;;4918232;29;20039;-76
2023/05/07 11:45:05;;;;;;;5.32;4.93;;;;;;;;;;4918453;29;20032;-75
2023/05/07 11:47:31;;;;;;;5.13;4.63;;;;;;;;;;4917896;29;20052;-75
2023/05/07 11:50:02;;;;;;;5.22;4.82;;;;;;;;;;4917976;29;20040;-75
2023/05/07 11:52:28;;;;;;;4.65;4.25;;;;;;;;;;4918229;29;20459;-76
2023/05/07 11:54:55;;;;;;;5.20;4.50;;;;;;;;;;4918500;29;20043;-75
2023/05/07 11:57:22;;;;;;;4.40;4.00;;;;;;;;;;4917965;29;20032;-76
2023/05/07 11:59:48;;;;;;;4.50;4.20;;;;;;;;;;4918166;29;20160;-76
2023/05/07 12:02:17;;;;;;;4.63;4.22;;;;;;;;;;4931529;29;20562;-75
2023/05/07 12:04:42;;;;;;;4.25;3.95;;;;;;;;;;4918176;29;20118;-75
2023/05/07 12:07:15;;;;;;;4.90;4.18;;;;;;;;;;4917744;29;20432;-75
2023/05/07 12:09:44;;;;;;;6.22;5.72;;;;;;;;;;4918024;29;20032;-75
2023/05/07 12:12:10;;;;;;;5.18;4.78;;;;;;;;;;4917829;29;20028;-75
2023/05/07 12:14:40;;;;;;;5.72;5.22;;;;;;;;;;4917897;29;20080;-75
2023/05/07 12:17:07;;;;;;;6.55;6.03;;;;;;;;;;4917694;29;20024;-75
2023/05/07 12:19:34;;;;;;;6.03;5.53;;;;;;;;;;4918011;29;20048;-76
2023/05/07 12:22:00;;;;;;;6.45;5.90;;;;;;;;;;4917260;29;20044;-76
2023/05/07 12:24:25;;;;;;;5.70;5.20;;;;;;;;;;4917734;29;20032;-75
2023/05/07 12:26:50;;;;;;;6.80;6.22;;;;;;;;;;4917606;29;20024;-75
2023/05/07 12:29:16;;;;;;;7.47;6.72;;;;;;;;;;4917660;29;20032;-75
2023/05/07 12:31:42;;;;;;;8.40;7.63;;;;;;;;;;4917486;29;20439;-75
2023/05/07 12:34:07;;;;;;;7.10;6.38;;;;;;;;;;4917641;29;20036;-75
2023/05/07 12:36:40;;;;;;;10.15;9.35;;;;;;;;;;4917445;29;20032;-76
2023/05/07 12:39:09;;;;;;;9.43;8.43;;;;;;;;;;4917747;29;20102;-75
2023/05/07 12:41:54;;;;;;;8.02;6.88;;;;;;;;;;4917414;29;20075;-76
2023/05/07 12:44:22;;;;;;;7.72;6.95;;;;;;;;;;4917364;29;20028;-79
2023/05/07 12:46:47;;;;;;;8.13;7.30;;;;;;;;;;4917534;29;20032;-79
2023/05/07 12:49:13;;;;;;;8.13;6.97;;;;;;;;;;4917666;29;20049;-77
2023/05/07 12:51:38;;;;;;;8.50;7.70;;;;;;;;;;4917309;29;20027;-79
2023/05/07 12:54:04;;;;;;;9.02;8.32;;;;;;;;;;4917414;29;20032;-81
2023/05/07 12:56:36;;;;;;;8.35;7.55;;;;;;;;;;4917123;29;20476;-75
2023/05/07 12:59:01;;;;;;;10.25;9.25;;;;;;;;;;4917216;29;20060;-76
2023/05/07 13:01:31;;;;;;;10.00;8.57;;;;;;;;;;4917137;29;20032;-77
2023/05/07 17:01:43;;;;;;;7.28;6.63;;;;;;;;;;4893818;29;20504;-74
2023/05/07 17:04:08;;;;;;;7.10;6.50;;;;;;;;;;4897482;29;20036;-75
2023/05/07 17:06:34;;;;;;;7.53;6.90;;;;;;;;;;4897421;29;20036;-74
2023/05/07 17:08:59;;;;;;;11.57;10.48;;;;;;;;;;4897340;29;20024;-75
2023/05/07 17:11:29;;;;;;;8.93;8.05;;;;;;;;;;4897511;29;20029;-75
2023/05/07 17:13:56;;;;;;;8.63;7.90;;;;;;;;;;4897428;29;20056;-76
2023/05/07 17:16:21;;;;;;;7.18;6.68;;;;;;;;;;4897563;29;20486;-75
2023/05/07 17:18:47;;;;;;;8.07;7.28;;;;;;;;;;4897133;29;20081;-85
2023/05/07 17:21:12;;;;;;;8.90;7.50;;;;;;;;;;4897247;29;20096;-75
2023/05/07 17:23:38;;;;;;;7.85;7.25;;;;;;;;;;4897115;29;20032;-83
2023/05/07 17:26:10;;;;;;;7.75;7.05;;;;;;;;;;4897346;29;20117;-84
2023/05/07 17:28:35;;;;;;;7.93;7.22;;;;;;;;;;4897044;29;20084;-81
2023/05/07 17:31:01;;;;;;;8.35;7.65;;;;;;;;;;4897167;29;20029;-76
2023/05/07 17:33:26;;;;;;;7.95;7.30;;;;;;;;;;4897079;29;20020;-86
2023/05/07 17:35:53;;;;;;;9.35;8.48;;;;;;;;;;4896839;29;20044;-76
2023/05/07 17:38:19;;;;;;;9.52;8.57;;;;;;;;;;4897117;29;20104;-84
2023/05/07 17:40:44;;;;;;;7.60;6.95;;;;;;;;;;4897129;29;20112;-77
2023/05/07 17:43:10;;;;;;;8.50;7.60;;;;;;;;;;4897116;29;20448;-77
2023/05/07 17:45:35;;;;;;;7.43;6.82;;;;;;;;;;4896947;29;20029;-79
2023/05/07 17:48:01;;;;;;;8.30;7.53;;;;;;;;;;4927393;29;20041;-78
2023/05/07 17:50:27;;;;;;;7.95;7.25;;;;;;;;;;4896939;29;20088;-78
2023/05/07 17:52:53;;;;;;;8.80;8.05;;;;;;;;;;4897192;29;20116;-76
2023/05/07 17:55:18;;;;;;;7.80;7.03;;;;;;;;;;4897078;29;20099;-82
2023/05/07 17:57:43;;;;;;;8.75;8.02;;;;;;;;;;4897075;29;20540;-82
2023/05/07 18:00:10;;;;;;;8.38;7.57;;;;;;;;;;4898919;29;20033;-76
2023/05/07 18:02:35;;;;;;;8.05;7.35;;;;;;;;;;4861931;29;1146765;-75
2023/05/07 18:05:01;;;;;;;7.60;6.75;;;;;;;;;;4901088;29;20039;-76
2023/05/07 18:07:26;;;;;;;7.28;6.50;;;;;;;;;;4901103;29;20028;-75
2023/05/07 18:09:52;;;;;;;7.20;6.50;;;;;;;;;;4901262;29;20058;-79
2023/05/07 18:12:17;;;;;;;7.40;6.80;;;;;;;;;;4899702;29;20032;-75
2023/05/07 18:14:43;;;;;;;11.10;9.65;;;;;;;;;;4901146;29;20543;-76
2023/05/07 18:17:08;;;;;;;21.90;15.82;;;;;;;;;;4900944;29;20021;-81
2023/05/07 18:19:34;;;;;;;24.20;19.27;;;;;;;;;;4904792;29;20160;-77
2023/05/07 18:21:59;;;;;;;25.05;19.65;;;;;;;;;;4911190;29;20473;-75
2023/05/07 18:24:26;;;;;;;16.88;14.98;;;;;;;;;;4907966;29;20048;-83
2023/05/07 18:26:51;;;;;;;13.52;12.13;;;;;;;;;;4905599;29;20036;-78
2023/05/07 18:29:17;;;;;;;14.15;12.63;;;;;;;;;;4915523;29;20032;-84
2023/05/07 18:31:42;;;;;;;12.32;11.13;;;;;;;;;;4919422;29;20028;-79
2023/05/07 18:34:09;;;;;;;12.57;11.32;;;;;;;;;;4918968;29;20058;-75
2023/05/07 18:36:34;;;;;;;14.68;13.18;;;;;;;;;;4913816;29;20371;-81
2023/05/07 18:39:00;;;;;;;15.07;13.63;;;;;;;;;;4900472;29;20028;-83
2023/05/07 18:41:25;;;;;;;14.13;12.60;;;;;;;;;;4900472;29;20017;-81
2023/05/07 18:43:51;;;;;;;14.02;12.63;;;;;;;;;;4900284;29;20040;-75
2023/05/07 18:46:16;;;;;;;12.88;11.18;;;;;;;;;;4900540;29;20033;-77
2023/05/07 18:48:42;;;;;;;14.27;10.65;;;;;;;;;;4900234;29;20119;-76
2023/05/07 18:51:11;;;;;;;12.93;10.90;;;;;;;;;;4900160;29;20056;-84
2023/05/07 18:53:39;;;;;;;9.55;8.57;;;;;;;;;;4905372;29;20031;-83
2023/05/07 18:56:06;;;;;;;12.77;9.33;;;;;;;;;;4919054;29;20070;-84
2023/05/07 18:58:33;;;;;;;13.23;10.27;;;;;;;;;;4918972;29;20051;-83
2023/05/07 19:01:00;;;;;;;10.88;9.52;;;;;;;;;;4917675;29;20029;-83
2023/05/07 19:03:26;;;;;;;14.77;10.82;;;;;;;;;;4918316;29;20395;-79
2023/05/07 19:05:51;;;;;;;14.07;9.98;;;;;;;;;;4910666;29;20028;-76
2023/05/07 19:08:17;;;;;;;17.85;11.43;;;;;;;;;;4918509;29;20368;-80
2023/05/07 19:10:43;;;;;;;16.55;11.00;;;;;;;;;;4918577;29;20028;-84
2023/05/07 19:13:09;;;;;;;13.30;9.52;;;;;;;;;;4914953;29;20507;-80
2023/05/07 19:15:35;;;;;;;14.20;11.02;;;;;;;;;;4911393;29;20032;-75
2023/05/07 19:18:00;;;;;;;16.25;11.38;;;;;;;;;;4918459;29;20144;-76
2023/05/07 19:20:26;;;;;;;26.38;11.80;;;;;;;;;;4918446;29;20032;-77
2023/05/07 19:22:51;;;;;;;16.90;10.75;;;;;;;;;;4919000;29;20067;-77
2023/05/07 19:25:17;;;;;;;17.35;11.18;;;;;;;;;;4918464;29;20115;-75
2023/05/07 19:27:42;;;;;;;15.77;10.63;;;;;;;;;;4918475;29;20107;-76
2023/05/07 19:30:08;;;;;;;10.38;8.85;;;;;;;;;;4918612;29;20035;-81
2023/05/07 19:32:34;;;;;;;12.38;8.50;;;;;;;;;;4918322;29;20039;-75
2023/05/07 19:34:59;;;;;;;11.65;8.18;;;;;;;;;;4918207;29;20024;-76
2023/05/07 19:37:26;;;;;;;13.80;8.90;;;;;;;;;;4918348;29;20024;-83
2023/05/07 19:39:52;;;;;;;10.73;9.13;;;;;;;;;;4918194;29;20024;-76
2023/05/07 19:42:18;;;;;;;9.93;8.38;;;;;;;;;;4917882;29;20039;-83
2023/05/07 19:44:43;;;;;;;9.23;8.23;;;;;;;;;;4918430;29;20368;-82
2023/05/07 19:47:09;;;;;;;9.00;7.72;;;;;;;;;;4907696;29;20040;-76
2023/05/07 19:49:35;;;;;;;7.10;6.35;;;;;;;;;;4917366;29;20032;-77
2023/05/07 19:52:00;;;;;;;7.88;6.90;;;;;;;;;;4917764;29;20028;-83
2023/05/07 19:54:26;;;;;;;7.20;6.50;;;;;;;;;;4932704;29;20111;-83
2023/05/07 19:56:51;;;;;;;6.40;5.68;;;;;;;;;;4918205;29;20028;-84
2023/05/07 19:59:16;;;;;;;7.60;6.32;;;;;;;;;;4918058;29;20032;-77
2023/05/07 20:01:42;;;;;;;7.55;5.00;;;;;;;;;;4917560;29;20400;-82
2023/05/07 20:04:07;;;;;;;7.13;4.82;;;;;;;;;;4914456;29;20052;-84
2023/05/07 20:06:33;;;;;;;5.88;3.95;;;;;;;;;;4909007;29;20028;-77
2023/05/07 20:08:58;;;;;;;6.45;3.72;;;;;;;;;;4915512;29;20498;-83
2023/05/07 20:11:24;;;;;;;5.10;3.40;;;;;;;;;;4918031;29;20032;-76
2023/05/07 20:13:49;;;;;;;7.72;6.82;;;;;;;;;;4918108;29;20472;-76
2023/05/07 20:16:15;;;;;;;6.50;5.75;;;;;;;;;;4917714;29;20464;-76
2023/05/07 20:18:40;;;;;;;7.13;5.25;;;;;;;;;;4917737;29;20032;-76
2023/05/07 20:21:06;;;;;;;6.13;5.30;;;;;;;;;;4917557;29;20024;-77
2023/05/07 20:23:31;;;;;;;7.20;5.88;;;;;;;;;;4917108;29;20080;-77
2023/05/07 20:25:57;;;;;;;8.65;5.03;;;;;;;;;;4917923;29;20028;-76
2023/05/07 20:28:23;;;;;;;6.22;4.80;;;;;;;;;;4917472;29;20035;-83
2023/05/07 20:30:48;;;;;;;5.25;4.75;;;;;;;;;;4917874;29;20391;-76
2023/05/07 20:33:14;;;;;;;4.65;3.90;;;;;;;;;;4917632;29;20039;-78
2023/05/07 20:35:40;;;;;;;4.93;3.83;;;;;;;;;;4916154;29;20496;-84
2023/05/07 20:38:05;;;;;;;5.88;4.63;;;;;;;;;;4917417;29;20043;-76
2023/05/07 20:40:33;;;;;;;7.40;5.38;;;;;;;;;;4917088;29;20119;-84
2023/05/07 20:42:59;;;;;;;6.72;5.80;;;;;;;;;;4917630;29;20039;-83
2023/05/07 20:45:24;;;;;;;6.45;5.75;;;;;;;;;;4917530;29;20033;-84
2023/05/07 20:47:50;;;;;;;6.85;6.18;;;;;;;;;;4906062;29;20032;-76
2023/05/07 20:50:15;;;;;;;9.18;6.20;;;;;;;;;;4898667;29;20112;-75
2023/05/07 20:52:41;;;;;;;7.80;5.72;;;;;;;;;;4898549;29;20028;-76
2023/05/07 20:55:07;;;;;;;6.25;5.07;;;;;;;;;;4898527;29;20036;-76
2023/05/07 20:57:33;;;;;;;5.18;4.78;;;;;;;;;;4898646;29;20025;-76
2023/05/07 20:59:58;;;;;;;5.85;4.63;;;;;;;;;;4898565;29;20104;-75
2023/05/07 21:02:23;;;;;;;5.43;4.68;;;;;;;;;;4898201;29;20426;-83
2023/05/07 21:04:51;;;;;;;6.72;4.70;;;;;;;;;;4898577;29;20027;-78
2023/05/07 21:07:16;;;;;;;7.68;4.90;;;;;;;;;;4897001;29;20408;-76
2023/05/07 21:09:42;;;;;;;6.28;4.25;;;;;;;;;;4898350;29;20025;-83
2023/05/07 21:12:07;;;;;;;4.90;4.15;;;;;;;;;;4898571;29;20040;-76
2023/05/07 21:14:35;;;;;;;6.20;4.63;;;;;;;;;;4903257;29;20043;-76
2023/05/07 21:17:00;;;;;;;6.03;4.55;;;;;;;;;;4911432;29;20075;-76
2023/05/07 21:19:25;;;;;;;7.53;4.70;;;;;;;;;;4916966;29;20102;-78
